sensor_id;sensor_type;location;lat;lon;timestamp;pressure;altitude;pressure_sealevel;temperature;humidity
67842;BME280;54642;59.126;37.876;2022-09-09T00:03:48;100949.59;;;7.97;70.49
67842;BME280;54642;59.126;37.876;2022-09-09T00:06:23;100953.13;;;7.99;70.71
67842;BME280;54642;59.126;37.876;2022-09-09T00:09:13;100901.66;;;7.64;70.76
67842;BME280;54642;59.126;37.876;2022-09-09T00:11:52;100927.22;;;7.54;71.03
67842;BME280;54642;59.126;37.876;2022-09-09T00:14:32;100955.16;;;7.73;71.30
67842;BME280;54642;59.126;37.876;2022-09-09T00:17:06;100922.13;;;7.57;71.07
67842;BME280;54642;59.126;37.876;2022-09-09T00:19:55;100956.28;;;7.86;71.09
67842;BME280;54642;59.126;37.876;2022-09-09T00:22:28;100944.97;;;7.81;70.86
67842;BME280;54642;59.126;37.876;2022-09-09T00:25:10;100935.44;;;7.77;70.37
67842;BME280;54642;59.126;37.876;2022-09-09T00:27:41;100946.78;;;7.85;70.45
67842;BME280;54642;59.126;37.876;2022-09-09T00:32:40;100961.25;;;7.77;71.22
67842;BME280;54642;59.126;37.876;2022-09-09T00:37:35;100942.72;;;7.55;71.09
67842;BME280;54642;59.126;37.876;2022-09-09T00:40:16;100940.06;;;7.52;71.30
67842;BME280;54642;59.126;37.876;2022-09-09T00:42:44;100966.19;;;7.66;71.20
67842;BME280;54642;59.126;37.876;2022-09-09T00:55:56;100966.91;;;7.60;70.93
67842;BME280;54642;59.126;37.876;2022-09-09T00:58:26;100984.34;;;7.72;70.92
67842;BME280;54642;59.126;37.876;2022-09-09T01:01:09;100981.78;;;7.72;70.87
67842;BME280;54642;59.126;37.876;2022-09-09T01:03:53;100927.75;;;7.39;70.82
67842;BME280;54642;59.126;37.876;2022-09-09T01:17:23;100980.84;;;7.69;70.73
67842;BME280;54642;59.126;37.876;2022-09-09T01:28:16;100919.44;;;7.13;71.36
67842;BME280;54642;59.126;37.876;2022-09-09T01:30:46;100970.78;;;7.41;71.41
67842;BME280;54642;59.126;37.876;2022-09-09T01:33:17;100990.78;;;7.52;70.99
67842;BME280;54642;59.126;37.876;2022-09-09T01:35:52;100956.59;;;7.22;71.46
67842;BME280;54642;59.126;37.876;2022-09-09T01:38:23;100960.84;;;7.20;71.29
67842;BME280;54642;59.126;37.876;2022-09-09T01:40:52;100941.81;;;7.15;71.23
67842;BME280;54642;59.126;37.876;2022-09-09T01:43:22;100995.81;;;7.45;71.27
67842;BME280;54642;59.126;37.876;2022-09-09T01:45:50;100907.94;;;6.98;71.07
67842;BME280;54642;59.126;37.876;2022-09-09T01:48:18;100935.84;;;7.16;70.94
67842;BME280;54642;59.126;37.876;2022-09-09T01:50:51;100994.97;;;7.47;70.87
67842;BME280;54642;59.126;37.876;2022-09-09T01:53:19;100945.38;;;7.20;70.92
67842;BME280;54642;59.126;37.876;2022-09-09T02:02:08;100996.75;;;7.49;70.85
67842;BME280;54642;59.126;37.876;2022-09-09T02:07:39;100987.78;;;7.33;71.07
67842;BME280;54642;59.126;37.876;2022-09-09T02:10:17;100987.81;;;7.35;71.24
67842;BME280;54642;59.126;37.876;2022-09-09T02:12:59;100997.31;;;7.36;71.30
67842;BME280;54642;59.126;37.876;2022-09-09T02:15:35;100999.81;;;7.33;71.54
67842;BME280;54642;59.126;37.876;2022-09-09T02:18:07;100965.88;;;7.14;71.37
67842;BME280;54642;59.126;37.876;2022-09-09T02:20:37;100980.66;;;7.21;71.55
67842;BME280;54642;59.126;37.876;2022-09-09T02:23:05;101007.53;;;7.33;71.54
67842;BME280;54642;59.126;37.876;2022-09-09T02:25:35;100957.13;;;7.07;71.71
67842;BME280;54642;59.126;37.876;2022-09-09T02:28:13;101010.97;;;7.32;71.71
67842;BME280;54642;59.126;37.876;2022-09-09T02:30:42;100982.16;;;7.13;71.69
67842;BME280;54642;59.126;37.876;2022-09-09T02:33:10;100999.81;;;7.33;71.80
67842;BME280;54642;59.126;37.876;2022-09-09T02:35:44;100952.56;;;6.97;71.87
67842;BME280;54642;59.126;37.876;2022-09-09T02:38:15;101004.88;;;7.30;71.89
67842;BME280;54642;59.126;37.876;2022-09-09T02:40:51;101010.13;;;7.33;71.92
67842;BME280;54642;59.126;37.876;2022-09-09T02:43:17;100995.31;;;7.24;71.61
67842;BME280;54642;59.126;37.876;2022-09-09T02:45:53;100948.31;;;6.98;71.50
67842;BME280;54642;59.126;37.876;2022-09-09T02:50:54;101018.84;;;7.38;71.43
67842;BME280;54642;59.126;37.876;2022-09-09T02:53:40;101018.75;;;7.35;71.38
67842;BME280;54642;59.126;37.876;2022-09-09T02:56:21;101003.16;;;7.29;71.52
67842;BME280;54642;59.126;37.876;2022-09-09T02:58:52;100923.84;;;6.80;71.43
67842;BME280;54642;59.126;37.876;2022-09-09T03:01:18;101024.84;;;7.38;71.42
67842;BME280;54642;59.126;37.876;2022-09-09T03:03:43;101012.38;;;7.19;71.77
67842;BME280;54642;59.126;37.876;2022-09-09T03:06:14;100979.53;;;7.10;71.44
67842;BME280;54642;59.126;37.876;2022-09-09T03:08:40;101019.56;;;7.32;71.88
67842;BME280;54642;59.126;37.876;2022-09-09T03:11:08;101021.34;;;7.35;71.76
67842;BME280;54642;59.126;37.876;2022-09-09T03:13:36;101013.47;;;7.29;71.88
67842;BME280;54642;59.126;37.876;2022-09-09T03:16:03;101001.44;;;7.29;71.79
67842;BME280;54642;59.126;37.876;2022-09-09T03:18:35;100981.19;;;7.08;71.91
67842;BME280;54642;59.126;37.876;2022-09-09T03:21:01;101025.75;;;7.39;72.09
67842;BME280;54642;59.126;37.876;2022-09-09T03:23:29;101032.72;;;7.43;71.99
67842;BME280;54642;59.126;37.876;2022-09-09T03:25:56;100985.59;;;7.12;72.06
67842;BME280;54642;59.126;37.876;2022-09-09T03:28:32;101003.00;;;7.22;72.43
67842;BME280;54642;59.126;37.876;2022-09-09T03:31:01;100972.78;;;7.17;72.38
67842;BME280;54642;59.126;37.876;2022-09-09T03:33:32;100945.00;;;7.03;72.16
67842;BME280;54642;59.126;37.876;2022-09-09T03:36:00;101037.47;;;7.62;72.00
67842;BME280;54642;59.126;37.876;2022-09-09T03:38:26;101043.44;;;7.61;72.18
67842;BME280;54642;59.126;37.876;2022-09-09T03:40:53;101039.88;;;7.56;72.06
67842;BME280;54642;59.126;37.876;2022-09-09T03:43:22;101050.28;;;7.59;72.36
67842;BME280;54642;59.126;37.876;2022-09-09T03:45:48;101007.53;;;7.33;72.26
67842;BME280;54642;59.126;37.876;2022-09-09T03:48:15;101040.19;;;7.69;72.21
67842;BME280;54642;59.126;37.876;2022-09-09T03:50:49;101051.59;;;7.78;72.03
67842;BME280;54642;59.126;37.876;2022-09-09T03:53:17;101042.94;;;7.76;72.16
67842;BME280;54642;59.126;37.876;2022-09-09T03:55:46;101033.38;;;7.72;72.19
67842;BME280;54642;59.126;37.876;2022-09-09T03:58:14;101031.56;;;7.68;72.12
67842;BME280;54642;59.126;37.876;2022-09-09T04:00:40;101004.78;;;7.63;72.02
67842;BME280;54642;59.126;37.876;2022-09-09T04:03:09;101051.81;;;7.89;72.06
67842;BME280;54642;59.126;37.876;2022-09-09T04:05:35;101051.91;;;7.92;72.02
67842;BME280;54642;59.126;37.876;2022-09-09T04:08:06;101047.50;;;7.88;71.88
67842;BME280;54642;59.126;37.876;2022-09-09T04:10:33;101052.75;;;7.93;72.00
67842;BME280;54642;59.126;37.876;2022-09-09T04:13:04;101062.38;;;8.00;71.80
67842;BME280;54642;59.126;37.876;2022-09-09T04:15:30;101069.22;;;7.98;71.85
67842;BME280;54642;59.126;37.876;2022-09-09T04:17:57;101069.28;;;8.01;71.85
67842;BME280;54642;59.126;37.876;2022-09-09T04:20:23;101066.66;;;7.98;71.80
67842;BME280;54642;59.126;37.876;2022-09-09T04:22:50;101007.44;;;7.66;71.75
67842;BME280;54642;59.126;37.876;2022-09-09T04:25:16;101007.63;;;7.74;71.77
67842;BME280;54642;59.126;37.876;2022-09-09T04:27:41;101016.22;;;7.74;71.72
67842;BME280;54642;59.126;37.876;2022-09-09T04:30:08;101063.31;;;8.04;71.59
67842;BME280;54642;59.126;37.876;2022-09-09T04:32:35;101025.16;;;7.90;71.62
67842;BME280;54642;59.126;37.876;2022-09-09T04:35:03;101044.47;;;8.08;71.77
67842;BME280;54642;59.126;37.876;2022-09-09T04:37:29;101058.56;;;8.24;71.73
67842;BME280;54642;59.126;37.876;2022-09-09T04:39:55;101061.47;;;8.39;71.36
67842;BME280;54642;59.126;37.876;2022-09-09T04:42:21;101060.81;;;8.48;71.24
67842;BME280;54642;59.126;37.876;2022-09-09T04:44:48;101051.28;;;8.45;70.96
67842;BME280;54642;59.126;37.876;2022-09-09T04:47:14;101061.91;;;8.59;70.70
67842;BME280;54642;59.126;37.876;2022-09-09T04:49:41;101062.03;;;8.67;70.70
67842;BME280;54642;59.126;37.876;2022-09-09T04:52:07;101025.59;;;8.53;70.45
67842;BME280;54642;59.126;37.876;2022-09-09T04:54:34;101056.09;;;8.72;70.42
67842;BME280;54642;59.126;37.876;2022-09-09T04:57:00;101056.34;;;8.85;70.44
67842;BME280;54642;59.126;37.876;2022-09-09T04:59:26;101050.38;;;8.87;70.48
67842;BME280;54642;59.126;37.876;2022-09-09T05:01:55;101056.72;;;9.06;70.21
67842;BME280;54642;59.126;37.876;2022-09-09T05:04:21;101058.66;;;9.18;70.00
67842;BME280;54642;59.126;37.876;2022-09-09T05:06:47;101024.91;;;9.12;69.60
67842;BME280;54642;59.126;37.876;2022-09-09T05:09:14;101049.44;;;9.37;69.70
67842;BME280;54642;59.126;37.876;2022-09-09T05:11:40;101029.63;;;9.36;69.43
67842;BME280;54642;59.126;37.876;2022-09-09T05:14:10;101013.06;;;9.25;69.14
67842;BME280;54642;59.126;37.876;2022-09-09T05:16:37;101038.53;;;9.57;68.90
67842;BME280;54642;59.126;37.876;2022-09-09T05:19:03;101045.59;;;9.67;68.78
67842;BME280;54642;59.126;37.876;2022-09-09T05:21:42;101048.34;;;9.78;68.48
67842;BME280;54642;59.126;37.876;2022-09-09T05:24:12;100989.38;;;9.57;68.37
67842;BME280;54642;59.126;37.876;2022-09-09T05:26:38;100962.53;;;9.48;67.94
67842;BME280;54642;59.126;37.876;2022-09-09T05:29:04;101000.03;;;9.80;67.75
67842;BME280;54642;59.126;37.876;2022-09-09T05:31:30;101001.91;;;9.90;67.61
67842;BME280;54642;59.126;37.876;2022-09-09T05:33:58;101049.03;;;10.30;67.74
67842;BME280;54642;59.126;37.876;2022-09-09T05:36:24;101047.50;;;10.46;66.98
67842;BME280;54642;59.126;37.876;2022-09-09T05:38:54;100991.25;;;10.33;66.72
67842;BME280;54642;59.126;37.876;2022-09-09T05:41:20;101017.50;;;10.65;66.64
67842;BME280;54642;59.126;37.876;2022-09-09T05:43:49;101017.69;;;10.85;66.43
67842;BME280;54642;59.126;37.876;2022-09-09T05:46:20;101020.41;;;10.99;66.03
67842;BME280;54642;59.126;37.876;2022-09-09T05:48:50;100992.69;;;10.93;65.83
67842;BME280;54642;59.126;37.876;2022-09-09T05:51:20;101021.44;;;11.21;65.25
67842;BME280;54642;59.126;37.876;2022-09-09T05:53:48;100993.69;;;11.07;65.20
67842;BME280;54642;59.126;37.876;2022-09-09T05:56:16;101013.72;;;11.25;64.86
67842;BME280;54642;59.126;37.876;2022-09-09T05:58:43;101026.75;;;11.36;64.74
67842;BME280;54642;59.126;37.876;2022-09-09T06:01:13;101032.75;;;11.29;64.85
67842;BME280;54642;59.126;37.876;2022-09-09T06:03:42;101039.66;;;11.25;64.95
67842;BME280;54642;59.126;37.876;2022-09-09T06:06:11;101022.19;;;11.06;64.99
67842;BME280;54642;59.126;37.876;2022-09-09T06:08:40;100982.19;;;10.78;64.82
67842;BME280;54642;59.126;37.876;2022-09-09T06:11:09;101039.69;;;11.32;64.66
67842;BME280;54642;59.126;37.876;2022-09-09T06:13:37;101042.41;;;11.52;64.28
67842;BME280;54642;59.126;37.876;2022-09-09T06:16:07;100982.69;;;11.39;64.13
67842;BME280;54642;59.126;37.876;2022-09-09T06:18:33;101031.38;;;11.83;63.70
67842;BME280;54642;59.126;37.876;2022-09-09T06:21:04;101041.88;;;11.99;63.08
67842;BME280;54642;59.126;37.876;2022-09-09T06:23:33;101031.53;;;12.07;63.11
67842;BME280;54642;59.126;37.876;2022-09-09T06:26:06;101036.78;;;12.17;62.50
67842;BME280;54642;59.126;37.876;2022-09-09T06:28:34;101035.06;;;12.24;62.24
67842;BME280;54642;59.126;37.876;2022-09-09T06:31:02;101042.91;;;12.41;61.97
67842;BME280;54642;59.126;37.876;2022-09-09T06:33:38;101006.47;;;12.24;61.64
67842;BME280;54642;59.126;37.876;2022-09-09T06:36:11;101050.69;;;12.33;61.60
67842;BME280;54642;59.126;37.876;2022-09-09T06:38:39;101048.00;;;12.12;61.59
67842;BME280;54642;59.126;37.876;2022-09-09T06:41:05;101012.47;;;12.03;61.76
67842;BME280;54642;59.126;37.876;2022-09-09T06:43:32;101046.38;;;12.31;61.31
67842;BME280;54642;59.126;37.876;2022-09-09T06:46:04;101019.50;;;12.29;60.77
67842;BME280;54642;59.126;37.876;2022-09-09T06:48:32;101054.22;;;12.51;60.46
67842;BME280;54642;59.126;37.876;2022-09-09T06:51:09;101056.84;;;12.62;60.08
67842;BME280;54642;59.126;37.876;2022-09-09T06:53:42;101043.00;;;12.66;59.56
67842;BME280;54642;59.126;37.876;2022-09-09T06:56:37;101061.22;;;12.86;59.29
67842;BME280;54642;59.126;37.876;2022-09-09T06:59:10;101046.50;;;12.83;58.96
67842;BME280;54642;59.126;37.876;2022-09-09T07:01:39;101041.28;;;12.83;58.36
67842;BME280;54642;59.126;37.876;2022-09-09T07:04:15;101051.72;;;12.94;58.43
67842;BME280;54642;59.126;37.876;2022-09-09T07:06:44;101052.59;;;12.91;57.70
67842;BME280;54642;59.126;37.876;2022-09-09T07:09:15;101038.66;;;12.71;57.38
67842;BME280;54642;59.126;37.876;2022-09-09T07:11:48;101049.94;;;12.71;57.02
67842;BME280;54642;59.126;37.876;2022-09-09T07:14:15;101037.78;;;12.61;56.59
67842;BME280;54642;59.126;37.876;2022-09-09T07:16:45;101027.25;;;12.23;56.42
67842;BME280;54642;59.126;37.876;2022-09-09T07:19:14;101014.19;;;12.07;56.75
67842;BME280;54642;59.126;37.876;2022-09-09T07:21:41;101067.94;;;12.11;57.77
67842;BME280;54642;59.126;37.876;2022-09-09T07:24:09;101075.63;;;11.94;57.13
67842;BME280;54642;59.126;37.876;2022-09-09T07:26:39;101055.56;;;11.72;57.19
67842;BME280;54642;59.126;37.876;2022-09-09T07:29:04;101069.44;;;11.77;57.06
67842;BME280;54642;59.126;37.876;2022-09-09T07:31:33;101074.81;;;12.03;56.21
67842;BME280;54642;59.126;37.876;2022-09-09T07:34:00;101061.88;;;12.09;55.83
67842;BME280;54642;59.126;37.876;2022-09-09T07:36:29;101035.75;;;11.86;55.68
67842;BME280;54642;59.126;37.876;2022-09-09T07:38:58;101078.25;;;11.99;55.68
67842;BME280;54642;59.126;37.876;2022-09-09T07:41:29;101068.72;;;11.95;55.75
67842;BME280;54642;59.126;37.876;2022-09-09T07:43:56;101073.84;;;11.89;55.34
67842;BME280;54642;59.126;37.876;2022-09-09T07:46:24;101079.16;;;12.04;55.32
67842;BME280;54642;59.126;37.876;2022-09-09T07:48:53;101077.53;;;12.22;54.97
67842;BME280;54642;59.126;37.876;2022-09-09T07:51:26;101076.63;;;12.19;54.65
67842;BME280;54642;59.126;37.876;2022-09-09T07:53:58;101077.53;;;12.28;54.90
67842;BME280;54642;59.126;37.876;2022-09-09T07:56:26;101031.50;;;12.00;54.92
67842;BME280;54642;59.126;37.876;2022-09-09T07:58:54;101047.97;;;12.02;54.89
67842;BME280;54642;59.126;37.876;2022-09-09T08:01:44;101059.22;;;12.01;55.08
67842;BME280;54642;59.126;37.876;2022-09-09T08:04:18;101083.47;;;12.05;55.13
67842;BME280;54642;59.126;37.876;2022-09-09T08:06:51;101067.84;;;11.91;55.15
67842;BME280;54642;59.126;37.876;2022-09-09T08:09:20;101037.31;;;11.64;55.20
67842;BME280;54642;59.126;37.876;2022-09-09T08:11:47;101088.53;;;11.80;55.54
67842;BME280;54642;59.126;37.876;2022-09-09T08:14:14;101084.13;;;11.70;56.21
67842;BME280;54642;59.126;37.876;2022-09-09T08:16:43;101037.16;;;11.42;56.25
67842;BME280;54642;59.126;37.876;2022-09-09T08:19:11;101087.59;;;11.78;56.31
67842;BME280;54642;59.126;37.876;2022-09-09T08:21:40;101092.81;;;11.78;57.65
67842;BME280;54642;59.126;37.876;2022-09-09T08:24:07;101053.78;;;11.69;56.83
67842;BME280;54642;59.126;37.876;2022-09-09T08:26:45;101044.22;;;11.62;56.39
67842;BME280;54642;59.126;37.876;2022-09-09T08:29:13;101039.00;;;11.56;56.31
67842;BME280;54642;59.126;37.876;2022-09-09T08:34:11;101075.47;;;11.74;56.21
67842;BME280;54642;59.126;37.876;2022-09-09T08:36:42;101043.31;;;11.55;56.11
67842;BME280;54642;59.126;37.876;2022-09-09T08:39:11;101076.31;;;11.69;56.28
67842;BME280;54642;59.126;37.876;2022-09-09T08:44:40;101089.34;;;11.73;55.92
67842;BME280;54642;59.126;37.876;2022-09-09T08:52:49;101032.78;;;11.31;56.47
67842;BME280;54642;59.126;37.876;2022-09-09T08:58:19;101046.66;;;11.39;56.69
67842;BME280;54642;59.126;37.876;2022-09-09T09:11:35;101074.31;;;11.35;56.34
67842;BME280;54642;59.126;37.876;2022-09-09T09:14:24;101073.53;;;11.45;56.41
67842;BME280;54642;59.126;37.876;2022-09-09T09:17:00;101110.84;;;11.58;56.28
67842;BME280;54642;59.126;37.876;2022-09-09T09:19:29;101089.19;;;11.55;56.11
67842;BME280;54642;59.126;37.876;2022-09-09T09:22:18;101090.97;;;11.59;56.43
67842;BME280;54642;59.126;37.876;2022-09-09T09:28:25;101080.47;;;11.47;56.49
67842;BME280;54642;59.126;37.876;2022-09-09T09:36:09;101084.69;;;11.35;56.86
67842;BME280;54642;59.126;37.876;2022-09-09T09:38:38;101049.06;;;11.13;57.04
67842;BME280;54642;59.126;37.876;2022-09-09T09:41:05;101086.47;;;11.38;56.84
67842;BME280;54642;59.126;37.876;2022-09-09T09:43:36;101047.38;;;11.21;56.65
67842;BME280;54642;59.126;37.876;2022-09-09T09:46:19;101095.19;;;11.48;56.61
67842;BME280;54642;59.126;37.876;2022-09-09T09:48:59;101092.63;;;11.51;56.56
67842;BME280;54642;59.126;37.876;2022-09-09T09:51:27;101069.09;;;11.31;56.57
67842;BME280;54642;59.126;37.876;2022-09-09T09:54:28;101084.78;;;11.43;56.32
67842;BME280;54642;59.126;37.876;2022-09-09T09:56:52;101091.72;;;11.47;56.31
67842;BME280;54642;59.126;37.876;2022-09-09T09:59:36;101094.25;;;11.41;56.16
67842;BME280;54642;59.126;37.876;2022-09-09T10:04:38;101106.50;;;11.54;56.29
67842;BME280;54642;59.126;37.876;2022-09-09T10:07:21;101058.72;;;11.34;56.34
67842;BME280;54642;59.126;37.876;2022-09-09T10:09:52;101075.28;;;11.47;55.86
67842;BME280;54642;59.126;37.876;2022-09-09T10:12:46;101074.38;;;11.40;55.83
67842;BME280;54642;59.126;37.876;2022-09-09T10:15:29;101097.88;;;11.60;55.81
67842;BME280;54642;59.126;37.876;2022-09-09T10:20:54;101099.63;;;11.64;55.57
67842;BME280;54642;59.126;37.876;2022-09-09T10:23:42;101011.91;;;11.18;55.37
67842;BME280;54642;59.126;37.876;2022-09-09T10:26:19;101094.50;;;11.70;55.83
67842;BME280;54642;59.126;37.876;2022-09-09T10:32:04;101092.75;;;11.71;54.59
67842;BME280;54642;59.126;37.876;2022-09-09T10:46:06;101102.38;;;11.86;54.61
67842;BME280;54642;59.126;37.876;2022-09-09T10:56:37;101104.03;;;11.73;54.64
67842;BME280;54642;59.126;37.876;2022-09-09T10:59:17;101091.94;;;11.76;54.54
67842;BME280;54642;59.126;37.876;2022-09-09T11:01:56;101101.47;;;11.77;54.47
67842;BME280;54642;59.126;37.876;2022-09-09T11:04:34;101044.16;;;11.50;54.25
67842;BME280;54642;59.126;37.876;2022-09-09T11:07:07;101073.72;;;11.69;54.65
67842;BME280;54642;59.126;37.876;2022-09-09T11:09:58;101091.97;;;11.86;54.94
67842;BME280;54642;59.126;37.876;2022-09-09T11:12:27;101041.63;;;11.57;54.78
67842;BME280;54642;59.126;37.876;2022-09-09T11:15:04;101092.06;;;11.90;54.98
67842;BME280;54642;59.126;37.876;2022-09-09T11:17:53;101092.09;;;11.93;55.08
67842;BME280;54642;59.126;37.876;2022-09-09T11:20:22;101097.22;;;11.89;54.67
67842;BME280;54642;59.126;37.876;2022-09-09T11:23:03;101090.31;;;11.91;54.48
67842;BME280;54642;59.126;37.876;2022-09-09T11:25:35;101062.47;;;11.70;54.18
67842;BME280;54642;59.126;37.876;2022-09-09T11:39:35;101095.66;;;12.14;54.19
67842;BME280;54642;59.126;37.876;2022-09-09T11:44:38;101040.03;;;11.81;54.02
67842;BME280;54642;59.126;37.876;2022-09-09T11:47:23;101081.75;;;12.04;54.24
67842;BME280;54642;59.126;37.876;2022-09-09T11:49:52;101099.06;;;12.05;54.06
67842;BME280;54642;59.126;37.876;2022-09-09T11:52:23;101105.16;;;12.10;53.97
67842;BME280;54642;59.126;37.876;2022-09-09T11:54:51;101082.63;;;12.06;54.20
67842;BME280;54642;59.126;37.876;2022-09-09T11:57:31;101056.63;;;11.98;53.90
67842;BME280;54642;59.126;37.876;2022-09-09T11:59:58;101081.78;;;12.12;54.16
67842;BME280;54642;59.126;37.876;2022-09-09T12:02:27;101092.22;;;12.23;54.40
67842;BME280;54642;59.126;37.876;2022-09-09T12:10:28;101091.41;;;12.30;54.15
67842;BME280;54642;59.126;37.876;2022-09-09T12:12:55;101087.94;;;12.34;54.12
67842;BME280;54642;59.126;37.876;2022-09-09T12:15:27;101078.44;;;12.33;53.82
67842;BME280;54642;59.126;37.876;2022-09-09T12:17:56;101045.38;;;12.07;53.78
67842;BME280;54642;59.126;37.876;2022-09-09T12:23:12;101077.47;;;12.17;53.92
67842;BME280;54642;59.126;37.876;2022-09-09T12:25:58;101080.94;;;12.17;54.37
67842;BME280;54642;59.126;37.876;2022-09-09T12:28:51;101086.13;;;12.10;54.35
67842;BME280;54642;59.126;37.876;2022-09-09T12:34:20;101096.47;;;12.05;53.97
67842;BME280;54642;59.126;37.876;2022-09-09T12:36:58;101069.59;;;12.01;54.22
67842;BME280;54642;59.126;37.876;2022-09-09T12:39:35;101064.31;;;11.88;54.27
67842;BME280;54642;59.126;37.876;2022-09-09T12:42:03;101034.75;;;11.69;54.43
67842;BME280;54642;59.126;37.876;2022-09-09T12:44:30;101091.25;;;11.99;54.42
67842;BME280;54642;59.126;37.876;2022-09-09T12:47:00;101077.38;;;11.97;54.74
67842;BME280;54642;59.126;37.876;2022-09-09T12:49:37;101082.59;;;12.01;54.56
67842;BME280;54642;59.126;37.876;2022-09-09T12:52:13;101062.69;;;12.05;54.33
67842;BME280;54642;59.126;37.876;2022-09-09T12:54:44;101048.81;;;12.01;54.50
67842;BME280;54642;59.126;37.876;2022-09-09T12:57:12;101083.53;;;12.16;54.49
67842;BME280;54642;59.126;37.876;2022-09-09T12:59:41;101078.34;;;12.16;54.41
67842;BME280;54642;59.126;37.876;2022-09-09T13:02:18;101009.66;;;11.69;54.10
67842;BME280;54642;59.126;37.876;2022-09-09T13:04:44;101033.19;;;11.94;54.33
67842;BME280;54642;59.126;37.876;2022-09-09T13:07:13;101076.63;;;12.23;54.37
67842;BME280;54642;59.126;37.876;2022-09-09T13:09:42;101068.00;;;12.25;54.38
67842;BME280;54642;59.126;37.876;2022-09-09T13:12:21;100997.59;;;11.82;54.39
67842;BME280;54642;59.126;37.876;2022-09-09T13:14:50;101002.84;;;11.90;54.46
67842;BME280;54642;59.126;37.876;2022-09-09T13:17:25;101065.41;;;12.24;54.45
67842;BME280;54642;59.126;37.876;2022-09-09T13:19:53;101062.78;;;12.27;54.54
67842;BME280;54642;59.126;37.876;2022-09-09T13:24:47;101032.41;;;12.04;54.49
67842;BME280;54642;59.126;37.876;2022-09-09T13:27:31;101070.56;;;12.19;54.26
67842;BME280;54642;59.126;37.876;2022-09-09T13:29:57;101063.63;;;12.19;54.26
67842;BME280;54642;59.126;37.876;2022-09-09T13:32:25;101063.63;;;12.19;54.25
67842;BME280;54642;59.126;37.876;2022-09-09T13:34:56;100984.56;;;11.73;54.10
67842;BME280;54642;59.126;37.876;2022-09-09T13:39:59;101046.25;;;12.06;54.28
67842;BME280;54642;59.126;37.876;2022-09-09T13:42:34;101038.44;;;11.98;54.64
67842;BME280;54642;59.126;37.876;2022-09-09T13:45:03;101054.06;;;12.09;54.56
67842;BME280;54642;59.126;37.876;2022-09-09T13:47:33;101045.41;;;12.12;54.73
67842;BME280;54642;59.126;37.876;2022-09-09T13:50:26;101054.97;;;12.17;54.71
67842;BME280;54642;59.126;37.876;2022-09-09T13:52:54;101035.88;;;12.06;54.31
67842;BME280;54642;59.126;37.876;2022-09-09T13:55:22;101059.28;;;12.15;54.17
67842;BME280;54642;59.126;37.876;2022-09-09T13:57:54;101055.84;;;12.16;54.48
67842;BME280;54642;59.126;37.876;2022-09-09T14:00:21;101046.31;;;12.17;54.48
67842;BME280;54642;59.126;37.876;2022-09-09T14:02:48;101026.34;;;12.10;54.32
67842;BME280;54642;59.126;37.876;2022-09-09T14:05:18;101041.13;;;12.18;54.84
67842;BME280;54642;59.126;37.876;2022-09-09T14:07:47;101042.00;;;12.20;54.78
67842;BME280;54642;59.126;37.876;2022-09-09T14:10:14;101056.72;;;12.25;54.86
67842;BME280;54642;59.126;37.876;2022-09-09T14:12:40;100991.63;;;11.94;54.34
67842;BME280;54642;59.126;37.876;2022-09-09T14:15:08;101048.06;;;12.18;54.54
67842;BME280;54642;59.126;37.876;2022-09-09T14:17:35;101036.75;;;12.11;54.67
67842;BME280;54642;59.126;37.876;2022-09-09T14:20:05;100976.81;;;11.77;54.41
67842;BME280;54642;59.126;37.876;2022-09-09T14:22:33;101007.16;;;11.86;54.57
67842;BME280;54642;59.126;37.876;2022-09-09T14:24:59;101049.72;;;12.08;54.42
67842;BME280;54642;59.126;37.876;2022-09-09T14:27:25;101043.66;;;12.06;54.59
67842;BME280;54642;59.126;37.876;2022-09-09T14:29:55;101020.19;;;11.91;54.44
67842;BME280;54642;59.126;37.876;2022-09-09T14:32:21;101035.81;;;11.97;54.48
67842;BME280;54642;59.126;37.876;2022-09-09T14:34:47;101041.00;;;12.00;54.64
67842;BME280;54642;59.126;37.876;2022-09-09T14:37:16;101017.53;;;11.83;54.78
67842;BME280;54642;59.126;37.876;2022-09-09T14:39:42;101044.50;;;12.02;54.79
67842;BME280;54642;59.126;37.876;2022-09-09T14:42:13;100988.88;;;11.69;54.98
67842;BME280;54642;59.126;37.876;2022-09-09T14:44:39;101003.66;;;11.73;55.08
67842;BME280;54642;59.126;37.876;2022-09-09T14:47:06;101039.22;;;11.90;54.88
67842;BME280;54642;59.126;37.876;2022-09-09T14:49:34;101023.59;;;11.83;54.81
67842;BME280;54642;59.126;37.876;2022-09-09T14:52:00;101043.56;;;11.92;55.19
67842;BME280;54642;59.126;37.876;2022-09-09T14:54:26;100985.34;;;11.55;54.92
67842;BME280;54642;59.126;37.876;2022-09-09T14:56:53;101046.13;;;11.88;55.00
67842;BME280;54642;59.126;37.876;2022-09-09T14:59:19;101014.88;;;11.72;55.19
67842;BME280;54642;59.126;37.876;2022-09-09T15:01:45;101032.25;;;11.81;55.44
67842;BME280;54642;59.126;37.876;2022-09-09T15:04:12;101049.66;;;11.96;55.44
67842;BME280;54642;59.126;37.876;2022-09-09T15:06:39;101035.81;;;11.95;55.41
67842;BME280;54642;59.126;37.876;2022-09-09T15:09:06;100990.63;;;11.70;55.57
67842;BME280;54642;59.126;37.876;2022-09-09T15:11:34;100960.25;;;11.54;55.76
67842;BME280;54642;59.126;37.876;2022-09-09T15:14:04;101039.28;;;11.99;55.96
67842;BME280;54642;59.126;37.876;2022-09-09T15:16:31;101043.66;;;12.05;55.70
67842;BME280;54642;59.126;37.876;2022-09-09T15:19:01;100992.38;;;11.76;55.83
67842;BME280;54642;59.126;37.876;2022-09-09T15:21:32;101032.38;;;12.01;55.92
67842;BME280;54642;59.126;37.876;2022-09-09T15:23:59;100987.19;;;11.74;56.28